Pagina principale
METAR-TAF:

METAR-TAF

Aeroporti :

Montichiari

Brescia, Italia

latitudine: 45-24-02N, longitudine: 010-18-59E, altezza: 104 m

Osservazione

Il bollettino è stato emesso 52 minuti fa, alle 17:00 UTC
Vento 4 kt da ovest/nord-ovest, variando fra ovest/sud-ovest e nord/nord-ovest
Temperature 23°C
Umidità 41%
Pressione 1014 hPa
Visibilità 10 km o più
nessuna nube inferiore a 1500 m e nessun cumulonembo

METAR: LIPO 311700Z 29004KT 250V330 CAVOK 23/09 Q1014

Ora: 19:52 (17:52 UTC)

Previsione

Il bollettino è stato emesso 23 ore e 40 minuti fa, alle 18:12 UTC
Previsione valida dal 29 alle 19 UTC al 30 alle 18 UTC
Vento 5 kt da direzioni variabili
Visibilità 10 km o più
nessuna nube inferiore a 1500 m e nessun cumulonembo

TAF: LIPO 291812Z 2919/3018 VRB05KT CAVOK

Osservazioni e previsioni meteorologiche di più di 4000 aeroporti (messaggi METAR e TAF).

Le stazioni disponibili sono rappresentate dai dischi gialli e rossi sulla carta.

Puntare il mouse per vedere il nome della stazione.

Clicca sopra per visualizzare le osservazioni e previsioni meteorologiche.

Per cambiare la mappa : fare clic sui pulsanti verdi con una croce nera per ingrandire, il pulsante verde con un trattino per diminuire, o sulla freccia verde per le mappe adiacenti.


METAR-TAF: